Aredale, Iowa
Current Conditions -  °F | °C
As of 10:15 PM on Wednesday 22 Oct 2014 (Local Time) from KCCY Reporting Station
Few Clouds Few Clouds  
Wind Chill: 12°   Ceiling: Unl
Heat Index: 12°   Visibility: 10mi
Dew Point:   Wind: 13mph
Humidity: 58%   Direction: 150°SSE
Pressure: 30.13"   Gusts: 20mph
Location:  42.83°N, 93.01°W
Report Text: KCCY 230315Z AUTO 15011G17KT 10SM FEW060 FEW070 12/04 A3013 RMK AO2
Loading
Personal Weather Stations






























Interactive Weather Map
Tropical Storm Tracking
New forecast layout! Learn more

10-Day Weather Forecast

Advertisements
Track Severe Weather on mobile